Aviation Digital Data Service (ADDS)

Output produced by TAFs form (0153 UTC 25 February 2018)
found at http://aviationweather.gov/adds/tafs/
 
KTUS 242320Z 2500/2524 32007KT P6SM SKC 
     FM250400 15006KT P6SM SKC 
     FM252000 33006KT P6SM SKC